Time;durP1;ratioP1;P1;durP2;ratioP2;P2;SDS_P1;SDS_P2;PMS_P1;PMS_P2;Temp;Humidity;BMP_temperature;BMP_pressure;BME280_temperature;BME280_humidity;BME280_pressure;Samples;Min_cycle;Max_cycle;Signal;HPM_P1;HPM_P2
2024/03/21 00:01:39;;;;;;;8.95;4.63;;;;;;;8.43;49.86;99279.56;5077412;28;20020;-81
2024/03/21 00:04:05;;;;;;;6.20;3.90;;;;;;;8.50;50.27;99281.44;5071655;28;20073;-79
2024/03/21 00:06:30;;;;;;;5.05;3.30;;;;;;;8.03;49.75;99223.25;5071506;28;20026;-80
2024/03/21 00:08:56;;;;;;;4.97;3.70;;;;;;;8.50;49.35;99284.97;5078426;28;20471;-80
2024/03/21 00:11:21;;;;;;;6.22;4.05;;;;;;;8.59;49.70;99287.25;5090619;28;20034;-79
2024/03/21 00:13:47;;;;;;;8.55;4.10;;;;;;;8.59;50.08;99276.25;5071147;28;20506;-79
2024/03/21 00:16:12;;;;;;;11.38;4.88;;;;;;;8.41;50.11;99261.88;5071234;28;20029;-78
2024/03/21 00:18:38;;;;;;;7.85;4.85;;;;;;;8.09;50.84;99231.84;5078577;28;20812;-80
2024/03/21 00:21:04;;;;;;;7.07;4.53;;;;;;;8.46;51.17;99275.97;5091202;28;20016;-80
2024/03/21 00:23:30;;;;;;;8.48;4.60;;;;;;;8.38;50.63;99262.69;5097443;28;20030;-78
2024/03/21 00:26:00;;;;;;;7.68;4.47;;;;;;;8.52;49.71;99287.31;5094059;28;20496;-81
2024/03/21 00:28:25;;;;;;;6.65;4.07;;;;;;;7.93;50.81;99232.38;5095205;28;20028;-81
2024/03/21 00:30:56;;;;;;;7.03;4.10;;;;;;;8.24;50.53;99257.28;5076145;28;20028;-80
2024/03/21 00:33:22;;;;;;;9.02;4.10;;;;;;;8.10;51.40;99250.72;5079853;28;20024;-81
2024/03/21 00:35:47;;;;;;;8.23;4.25;;;;;;;7.78;52.43;99225.41;5091165;28;20484;-80
2024/03/21 00:38:13;;;;;;;6.50;3.95;;;;;;;7.79;52.08;99240.72;5090926;28;20035;-81
2024/03/21 00:40:38;;;;;;;9.38;4.28;;;;;;;7.68;52.68;99226.28;5077137;28;20508;-81
2024/03/21 00:43:04;;;;;;;5.30;3.75;;;;;;;7.59;52.25;99221.25;5090638;28;20115;-80
2024/03/21 00:45:29;;;;;;;7.00;4.20;;;;;;;7.79;52.24;99251.75;5090556;28;20016;-80
2024/03/21 00:47:56;;;;;;;6.63;4.38;;;;;;;7.48;52.82;99230.72;5092082;28;20415;-80
2024/03/21 00:50:22;;;;;;;6.05;4.03;;;;;;;7.26;52.93;99197.09;5091734;28;20473;-79
2024/03/21 00:52:47;;;;;;;7.60;4.57;;;;;;;7.54;53.01;99237.38;5081899;28;20066;-79
2024/03/21 00:55:13;;;;;;;9.05;4.47;;;;;;;7.37;53.08;99228.06;5070675;28;20075;-80
2024/03/21 00:57:38;;;;;;;6.65;4.13;;;;;;;7.29;52.85;99232.81;5070689;28;20029;-81
2024/03/21 01:00:04;;;;;;;8.13;4.35;;;;;;;7.15;52.91;99193.66;5072929;28;20028;-79
2024/03/21 01:02:30;;;;;;;7.30;4.22;;;;;;;7.02;52.26;99189.78;5091057;28;20065;-81
2024/03/21 01:04:55;;;;;;;9.00;4.85;;;;;;;7.38;51.72;99228.84;5075553;28;20106;-81
2024/03/21 01:07:21;;;;;;;6.90;4.50;;;;;;;7.49;51.85;99246.84;5072284;28;20480;-81
2024/03/21 01:09:47;;;;;;;9.63;6.05;;;;;;;7.24;51.58;99204.97;5073292;28;20033;-81
2024/03/21 01:12:13;;;;;;;8.05;4.70;;;;;;;7.03;51.54;99189.41;5089903;28;20024;-80
2024/03/21 01:14:38;;;;;;;15.93;8.40;;;;;;;7.09;51.66;99179.53;5090796;28;20093;-80
2024/03/21 01:17:04;;;;;;;21.38;10.13;;;;;;;7.44;51.46;99227.22;5090694;28;20081;-80
2024/03/21 01:19:29;;;;;;;12.85;6.45;;;;;;;7.39;51.87;99214.69;5076213;28;20170;-79
2024/03/21 01:21:55;;;;;;;12.88;7.80;;;;;;;7.41;51.69;99223.34;5079404;28;20063;-80
2024/03/21 01:24:20;;;;;;;12.05;5.85;;;;;;;7.54;50.97;99232.66;5090815;28;20024;-80
2024/03/21 01:26:46;;;;;;;9.68;6.10;;;;;;;6.91;51.47;99148.66;5090725;28;20024;-80
2024/03/21 01:29:11;;;;;;;9.15;4.97;;;;;;;7.30;51.57;99211.59;5089709;28;20058;-79
2024/03/21 01:31:37;;;;;;;14.23;6.50;;;;;;;7.21;51.49;99209.31;5070748;28;20020;-80
2024/03/21 01:34:02;;;;;;;14.20;5.65;;;;;;;7.10;51.64;99197.59;5084829;28;20103;-81
2024/03/21 01:36:34;;;;;;;11.38;4.85;;;;;;;6.95;51.95;99174.91;5090697;28;20031;-80
2024/03/21 01:39:00;;;;;;;9.25;5.13;;;;;;;7.07;51.83;99187.41;5090454;28;20115;-80
2024/03/21 01:41:26;;;;;;;10.02;6.05;;;;;;;7.36;51.77;99234.72;5091814;28;20093;-79
2024/03/21 01:43:51;;;;;;;10.88;6.55;;;;;;;7.33;51.63;99206.09;5090775;28;20480;-81
2024/03/21 01:46:18;;;;;;;12.07;7.30;;;;;;;7.20;50.85;99158.28;5082626;28;20028;-80
2024/03/21 01:48:47;;;;;;;12.70;6.50;;;;;;;7.31;50.77;99171.94;5072092;28;20029;-81
2024/03/21 01:51:21;;;;;;;11.60;6.05;;;;;;;7.64;49.91;99222.78;5090590;28;20028;-80
2024/03/21 01:53:50;;;;;;;8.50;5.32;;;;;;;7.18;50.67;99174.38;5087301;28;20052;-79
2024/03/21 01:56:16;;;;;;;9.50;5.32;;;;;;;7.04;50.82;99170.94;5080540;28;20024;-79
2024/03/21 01:58:41;;;;;;;7.82;5.25;;;;;;;7.08;51.42;99183.47;5091351;28;20499;-79
2024/03/21 02:01:27;;;;;;;8.30;4.70;;;;;;;7.19;51.62;99214.41;5090428;28;20504;-80
2024/03/21 02:03:54;;;;;;;10.90;5.43;;;;;;;7.29;51.50;99216.31;5076757;28;20024;-80
2024/03/21 02:06:20;;;;;;;12.43;5.70;;;;;;;6.90;51.12;99166.31;5090377;28;20039;-79
2024/03/21 02:08:47;;;;;;;12.13;6.72;;;;;;;7.39;51.70;99225.69;5091376;28;20170;-81
2024/03/21 02:11:12;;;;;;;11.48;6.05;;;;;;;7.30;51.54;99223.38;5070114;28;20488;-81
2024/03/21 02:13:39;;;;;;;10.77;5.05;;;;;;;7.08;51.37;99191.72;5076643;28;20027;-80
2024/03/21 02:16:04;;;;;;;10.50;5.32;;;;;;;7.12;51.48;99200.72;5089883;28;20031;-80
2024/03/21 02:18:30;;;;;;;7.82;4.38;;;;;;;6.93;51.64;99184.75;5090168;28;20024;-79
2024/03/21 02:20:55;;;;;;;10.52;5.30;;;;;;;6.95;52.07;99191.38;5091195;28;20085;-81
2024/03/21 02:23:21;;;;;;;8.75;4.72;;;;;;;6.92;52.45;99197.69;5091764;28;20032;-81
2024/03/21 02:25:47;;;;;;;7.90;4.63;;;;;;;6.78;53.12;99216.19;5094210;28;20404;-80
2024/03/21 02:28:13;;;;;;;8.05;4.80;;;;;;;6.54;53.27;99190.38;5081664;28;20043;-79
2024/03/21 02:30:38;;;;;;;10.55;4.80;;;;;;;6.86;52.39;99182.03;5094055;28;20047;-80
2024/03/21 02:33:04;;;;;;;7.72;5.10;;;;;;;6.59;53.76;99200.16;5093581;28;20050;-79
2024/03/21 02:35:30;;;;;;;7.70;4.90;;;;;;;5.99;54.56;99173.66;5080977;28;20029;-78
2024/03/21 02:37:56;;;;;;;9.00;4.78;;;;;;;6.18;55.39;99203.41;5094107;28;20484;-80
2024/03/21 02:40:21;;;;;;;10.18;5.05;;;;;;;6.25;55.27;99208.09;5093946;28;20085;-79
2024/03/21 02:42:47;;;;;;;8.50;4.93;;;;;;;5.85;55.72;99157.19;5074128;28;20476;-80
2024/03/21 02:45:12;;;;;;;8.35;5.15;;;;;;;6.02;55.85;99190.13;5086292;28;20024;-79
2024/03/21 02:47:38;;;;;;;9.38;4.75;;;;;;;6.21;55.46;99201.84;5093528;28;20038;-80
2024/03/21 02:50:04;;;;;;;9.52;4.65;;;;;;;6.16;55.58;99196.75;5093781;28;20089;-79
2024/03/21 02:52:29;;;;;;;7.80;4.68;;;;;;;6.05;55.86;99185.78;5087407;28;20481;-80
2024/03/21 02:54:55;;;;;;;8.52;4.93;;;;;;;5.92;56.24;99168.19;5087188;28;20120;-81
2024/03/21 02:57:20;;;;;;;8.77;5.03;;;;;;;6.34;54.95;99212.00;5088735;28;20518;-81
2024/03/21 02:59:46;;;;;;;8.77;5.13;;;;;;;6.27;55.30;99194.78;5086009;28;20031;-82
2024/03/21 03:02:13;;;;;;;9.38;4.93;;;;;;;6.31;55.35;99192.81;5093397;28;20096;-79
2024/03/21 03:04:39;;;;;;;8.90;4.60;;;;;;;6.09;55.35;99167.34;5080906;28;20086;-79
2024/03/21 03:07:04;;;;;;;8.05;5.18;;;;;;;6.17;55.27;99174.41;5080055;28;20020;-80
2024/03/21 03:09:30;;;;;;;8.10;4.32;;;;;;;6.18;55.61;99200.66;5109778;28;20038;-78
2024/03/21 03:11:55;;;;;;;7.15;4.78;;;;;;;6.27;55.59;99192.78;5113881;28;20028;-79
2024/03/21 03:14:21;;;;;;;9.10;4.85;;;;;;;5.97;54.57;99137.59;5090409;28;20040;-81
2024/03/21 03:16:46;;;;;;;8.68;5.10;;;;;;;6.18;55.71;99173.22;5072614;28;20099;-80
2024/03/21 03:19:11;;;;;;;9.60;5.05;;;;;;;6.57;54.55;99219.78;5072908;28;20032;-80
2024/03/21 03:21:37;;;;;;;8.73;5.25;;;;;;;6.02;55.20;99168.19;5087051;28;20036;-79
2024/03/21 03:24:03;;;;;;;10.57;5.43;;;;;;;6.29;55.59;99204.16;5073864;28;20039;-79
2024/03/21 03:26:28;;;;;;;9.63;5.40;;;;;;;6.09;55.62;99159.13;5072846;28;20519;-80
2024/03/21 03:28:54;;;;;;;10.23;5.38;;;;;;;5.88;56.34;99157.22;5074124;28;20078;-80
2024/03/21 03:31:19;;;;;;;11.32;4.55;;;;;;;6.21;55.42;99188.88;5086055;28;20057;-80
2024/03/21 03:36:31;;;;;;;9.07;4.70;;;;;;;6.30;54.93;99194.75;5073515;28;20040;-80
2024/03/21 03:38:56;;;;;;;8.45;5.50;;;;;;;6.21;55.47;99196.38;5086154;28;20032;-80
2024/03/21 03:41:22;;;;;;;11.32;5.75;;;;;;;5.69;56.48;99128.22;5085353;28;20082;-81
2024/03/21 03:43:48;;;;;;;10.63;5.40;;;;;;;6.12;55.69;99208.53;5072364;28;20480;-79
2024/03/21 03:46:13;;;;;;;10.57;6.13;;;;;;;5.82;56.27;99153.28;5079438;28;20016;-79
2024/03/21 03:48:39;;;;;;;7.90;5.07;;;;;;;6.17;55.53;99201.06;5092313;28;20031;-80
2024/03/21 03:51:05;;;;;;;10.25;5.40;;;;;;;6.18;55.61;99203.41;5079054;28;20048;-80
2024/03/21 03:53:30;;;;;;;8.00;5.03;;;;;;;5.91;55.34;99161.13;5092184;28;20028;-80
2024/03/21 03:55:56;;;;;;;9.32;5.47;;;;;;;5.98;55.29;99169.34;5092529;28;20470;-81
2024/03/21 03:58:22;;;;;;;9.25;5.07;;;;;;;6.24;54.79;99201.84;5092146;28;20468;-80
2024/03/21 04:00:58;;;;;;;9.52;5.03;;;;;;;6.33;56.06;99202.19;5079993;28;20130;-79
2024/03/21 04:03:24;;;;;;;10.50;4.97;;;;;;;6.16;55.17;99186.56;5091117;28;20020;-83
2024/03/21 04:06:03;;;;;;;7.50;4.50;;;;;;;6.32;55.27;99197.91;5072183;28;20507;-80
2024/03/21 04:08:29;;;;;;;9.57;5.15;;;;;;;5.97;55.61;99190.50;5088613;28;20023;-81
2024/03/21 04:10:58;;;;;;;9.57;5.22;;;;;;;6.27;55.51;99220.25;5092029;28;20024;-81
2024/03/21 04:13:25;;;;;;;6.80;4.60;;;;;;;5.98;55.70;99194.03;5074363;28;20021;-81
2024/03/21 04:15:54;;;;;;;8.93;4.68;;;;;;;6.06;55.16;99166.22;5071703;28;20052;-80
2024/03/21 04:18:21;;;;;;;7.53;5.00;;;;;;;6.11;54.75;99165.00;5085204;28;20074;-81
2024/03/21 04:20:46;;;;;;;8.38;4.80;;;;;;;6.24;54.82;99203.78;5071696;28;20031;-83
2024/03/21 04:23:12;;;;;;;8.70;4.57;;;;;;;5.92;55.21;99154.47;5090068;28;20016;-80
2024/03/21 04:25:37;;;;;;;10.63;5.13;;;;;;;6.37;54.30;99208.47;5091836;28;20074;-82
2024/03/21 04:28:03;;;;;;;9.73;5.35;;;;;;;6.26;54.19;99193.22;5087052;28;20400;-81
2024/03/21 04:30:29;;;;;;;6.45;4.47;;;;;;;6.28;54.00;99190.84;5083053;28;20042;-81
2024/03/21 04:32:54;;;;;;;10.20;5.35;;;;;;;6.42;53.92;99188.84;5091546;28;20553;-81
2024/03/21 04:35:20;;;;;;;9.52;5.30;;;;;;;6.43;53.82;99175.91;5091768;28;20024;-83
2024/03/21 04:37:46;;;;;;;10.45;5.38;;;;;;;6.28;53.44;99144.97;5092393;28;20408;-80
2024/03/21 04:40:12;;;;;;;9.68;5.35;;;;;;;6.74;53.59;99207.19;5091740;28;20070;-80
2024/03/21 04:42:37;;;;;;;10.50;5.47;;;;;;;6.62;53.71;99218.59;5091769;28;20052;-80
2024/03/21 04:45:04;;;;;;;9.30;4.97;;;;;;;6.20;54.11;99168.16;5091258;28;20082;-79
2024/03/21 04:47:30;;;;;;;9.18;4.90;;;;;;;6.38;54.21;99187.31;5092443;28;20031;-79
2024/03/21 04:49:55;;;;;;;7.18;4.85;;;;;;;6.51;53.67;99193.91;5091419;28;20028;-80
2024/03/21 04:52:21;;;;;;;12.27;6.60;;;;;;;6.44;53.54;99159.06;5077489;28;20177;-80
2024/03/21 04:54:50;;;;;;;8.93;5.07;;;;;;;6.98;53.26;99205.50;5091037;28;20079;-81
2024/03/21 04:57:15;;;;;;;9.98;4.95;;;;;;;7.03;53.23;99180.38;5092004;28;20032;-79
2024/03/21 04:59:41;;;;;;;7.63;4.65;;;;;;;7.21;51.70;99167.31;5091205;28;20381;-79
2024/03/21 05:02:06;;;;;;;9.02;4.35;;;;;;;7.77;50.34;99152.34;5085722;28;20044;-78
2024/03/21 05:04:32;;;;;;;15.23;4.90;;;;;;;8.33;49.19;99188.78;5071819;28;20393;-80
2024/03/21 05:06:57;;;;;;;7.45;4.10;;;;;;;8.43;47.80;99165.88;5083803;28;20507;-78
2024/03/21 05:09:22;;;;;;;9.93;5.72;;;;;;;8.73;47.55;99203.69;5083190;28;20027;-78
2024/03/21 05:11:48;;;;;;;8.25;4.40;;;;;;;8.69;47.74;99184.44;5090026;28;20077;-79
2024/03/21 05:14:13;;;;;;;11.50;4.40;;;;;;;8.96;47.88;99207.34;5081790;28;20028;-81
2024/03/21 05:16:39;;;;;;;7.90;4.55;;;;;;;8.90;48.57;99199.94;5095029;28;20040;-80
2024/03/21 05:19:05;;;;;;;7.57;3.90;;;;;;;8.84;47.10;99177.56;5090000;28;20039;-80
2024/03/21 05:21:31;;;;;;;7.47;4.55;;;;;;;9.13;45.55;99131.13;5086642;28;20029;-80
2024/03/21 05:23:57;;;;;;;10.25;4.78;;;;;;;9.74;46.27;99186.91;5091858;28;20488;-79
2024/03/21 05:26:23;;;;;;;6.07;4.10;;;;;;;9.89;45.57;99170.88;5087901;28;20030;-80
2024/03/21 05:28:49;;;;;;;8.32;4.95;;;;;;;10.79;44.85;99201.97;5090518;28;20107;-80
2024/03/21 05:31:22;;;;;;;7.03;4.40;;;;;;;11.27;44.20;99195.06;5084556;28;20020;-81
2024/03/21 05:33:48;;;;;;;7.25;4.15;;;;;;;11.07;42.86;99137.03;5071526;28;20032;-81
2024/03/21 05:36:14;;;;;;;8.48;4.47;;;;;;;11.87;42.23;99184.59;5089607;28;20089;-82
2024/03/21 05:38:40;;;;;;;9.43;4.07;;;;;;;12.30;40.58;99154.56;5090427;28;20028;-81
2024/03/21 05:41:06;;;;;;;;;;;;;;;13.11;39.86;99190.31;5090856;28;20066;-79
2024/03/21 05:43:31;;;;;;;;;;;;;;;13.98;38.35;99185.22;5090925;28;20299;-81
2024/03/21 05:45:56;;;;;;;;;;;;;;;13.76;38.48;99182.34;5092470;28;19920;-80
2024/03/21 05:48:21;;;;;;;;;;;;;;;13.52;38.39;99188.69;5079540;28;19972;-81
2024/03/21 05:50:47;;;;;;;;;;;;;;;13.59;38.57;99183.72;5090300;28;20481;-80
2024/03/21 05:53:12;;;;;;;;;;;;;;;14.39;37.64;99192.59;5085331;28;19912;-81
2024/03/21 05:55:37;;;;;;;;;;;;;;;14.52;37.10;99186.97;5089484;28;19955;-80
2024/03/21 05:58:03;;;;;;;;;;;;;;;14.88;36.92;99190.03;5092518;28;19969;-80
2024/03/21 06:00:28;;;;;;;;;;;;;;;14.99;36.82;99190.41;5094626;28;20481;-80
2024/03/21 06:02:54;;;;;;;;;;;;;;;14.73;36.07;99191.75;5088037;28;19952;-80
2024/03/21 06:05:19;;;;;;;;;;;;;;;14.73;36.72;99183.41;5088105;28;20304;-82
2024/03/21 06:07:44;;;;;;;;;;;;;;;15.71;35.06;99180.88;5081285;28;19912;-79
2024/03/21 06:10:09;;;;;;;;;;;;;;;14.92;36.51;99187.88;5082116;28;20376;-83
2024/03/21 06:12:35;;;;;;;;;;;;;;;15.83;35.50;99187.56;5094554;28;19915;-80
2024/03/21 06:15:00;;;;;;;;;;;;;;;16.89;33.86;99171.06;5094675;28;19908;-82
2024/03/21 06:17:26;;;;;;;;;;;;;;;17.34;33.20;99170.97;5094464;28;19920;-80
2024/03/21 06:19:52;;;;;;;;;;;;;;;17.66;32.30;99179.88;5081619;28;19908;-81
2024/03/21 06:22:17;;;;;;;;;;;;;;;17.65;32.16;99175.53;5093766;28;19914;-80
2024/03/21 06:24:43;;;;;;;;;;;;;;;17.81;32.22;99178.69;5090487;28;20299;-82
2024/03/21 06:27:09;;;;;;;;;;;;;;;18.01;32.18;99182.94;5074046;28;19908;-83
2024/03/21 06:29:34;;;;;;;;;;;;;;;18.25;31.41;99180.91;5074031;28;19909;-81
2024/03/21 06:32:00;;;;;;;;;;;;;;;18.61;31.16;99165.91;5084579;28;19912;-80
2024/03/21 06:34:26;;;;;;;;;;;;;;;18.29;30.73;99170.31;5094390;28;19944;-80
2024/03/21 06:36:51;;;;;;;;;;;;;;;18.76;31.56;99180.69;5083870;28;19919;-81
2024/03/21 06:39:19;;;;;;;;;;;;;;;19.67;30.80;99173.31;5087280;28;19908;-84
2024/03/21 06:41:44;;;;;;;;;;;;;;;20.13;29.33;99170.69;5085810;28;20003;-82
2024/03/21 06:44:10;;;;;;;;;;;;;;;20.00;28.96;99171.00;5080488;28;19952;-82
2024/03/21 06:46:38;;;;;;;;;;;;;;;20.03;29.74;99167.22;5093978;28;19916;-82
2024/03/21 06:49:04;;;;;;;;;;;;;;;20.05;29.39;99170.31;5094897;28;19908;-82
2024/03/21 06:51:29;;;;;;;;;;;;;;;20.13;28.72;99173.47;5094038;28;19911;-80
2024/03/21 06:53:54;;;;;;;;;;;;;;;20.35;28.73;99167.41;5093814;28;19988;-81
2024/03/21 06:56:19;;;;;;;;;;;;;;;19.24;30.34;99161.66;5095041;28;19912;-80
2024/03/21 06:58:45;;;;;;;;;;;;;;;19.47;29.82;99169.19;5093204;28;20024;-79
2024/03/21 07:01:10;;;;;;;;;;;;;;;20.22;28.14;99165.69;5084058;28;19923;-82
2024/03/21 07:03:35;;;;;;;;;;;;;;;21.06;28.27;99156.16;5076630;28;19989;-80
2024/03/21 07:06:01;;;;;;;;;;;;;;;21.66;26.52;99157.19;5092805;28;19912;-81
2024/03/21 07:08:26;;;;;;;;;;;;;;;22.12;24.03;99162.59;5093191;28;19918;-82
2024/03/21 07:10:53;;;;;;;;;;;;;;;22.39;23.98;99155.53;5090182;28;19919;-80
2024/03/21 07:13:18;;;;;;;;;;;;;;;22.28;23.72;99155.50;5091021;28;19969;-79
2024/03/21 07:15:44;;;;;;;;;;;;;;;21.41;24.49;99146.75;5080235;28;19916;-80
2024/03/21 07:18:10;;;;;;;;;;;;;;;20.62;24.91;99139.63;5085516;28;19946;-79
2024/03/21 07:20:36;;;;;;;;;;;;;;;19.52;25.62;99144.56;5073483;28;19912;-78
2024/03/21 07:23:01;;;;;;;;;;;;;;;18.52;25.97;99140.75;5088999;28;20341;-82
2024/03/21 07:25:26;;;;;;;;;;;;;;;17.98;26.34;99147.53;5082094;28;19919;-79
2024/03/21 07:27:52;;;;;;;;;;;;;;;17.58;27.16;99140.28;5071908;28;19956;-82
2024/03/21 07:30:19;;;;;;;4.32;2.20;;;;;;;17.00;29.26;99110.72;5068747;28;20415;-80
2024/03/21 07:32:45;;;;;;;3.25;1.90;;;;;;;16.61;28.43;99090.22;5087818;28;20399;-81
2024/03/21 07:35:10;;;;;;;4.35;2.00;;;;;;;16.58;29.39;99112.63;5090157;28;20035;-83
2024/03/21 07:37:35;;;;;;;2.55;1.60;;;;;;;16.63;30.07;99128.81;5090808;28;20020;-82
2024/03/21 07:40:01;;;;;;;2.55;1.80;;;;;;;16.10;29.78;99059.38;5091977;28;20031;-79
2024/03/21 07:42:27;;;;;;;2.33;1.67;;;;;;;16.45;29.55;99134.38;5091986;28;20028;-81
2024/03/21 07:44:54;;;;;;;3.28;1.58;;;;;;;16.29;28.84;99129.88;5081662;28;20108;-80
2024/03/21 07:47:19;;;;;;;3.30;1.95;;;;;;;16.25;29.11;99085.41;5090028;28;20415;-81
2024/03/21 07:49:45;;;;;;;3.22;1.70;;;;;;;16.41;30.79;99117.78;5092102;28;20016;-78
2024/03/21 07:52:10;;;;;;;4.47;2.05;;;;;;;16.52;31.25;99112.50;5079817;28;20031;-81
2024/03/21 07:54:35;;;;;;;2.30;1.95;;;;;;;16.49;28.83;99115.44;5091381;28;20044;-82
2024/03/21 07:57:01;;;;;;;3.45;2.00;;;;;;;16.93;29.25;99130.59;5088289;28;20630;-79
2024/03/21 07:59:26;;;;;;;2.75;1.65;;;;;;;16.72;29.26;99083.34;5081243;28;20027;-83
2024/03/21 08:01:52;;;;;;;3.80;2.15;;;;;;;17.17;29.15;99124.31;5091463;28;20024;-83
2024/03/21 08:04:18;;;;;;;2.83;1.60;;;;;;;16.86;27.94;99114.19;5091418;28;20024;-79
2024/03/21 08:06:45;;;;;;;2.35;1.52;;;;;;;17.18;27.56;99106.34;5087774;28;20051;-81
2024/03/21 08:09:10;;;;;;;3.65;1.60;;;;;;;17.36;29.25;99073.47;5081502;28;20085;-80
2024/03/21 08:11:36;;;;;;;2.28;1.60;;;;;;;18.25;28.69;99113.78;5090857;28;20024;-79
2024/03/21 08:14:02;;;;;;;1.70;1.23;;;;;;;17.69;25.62;99055.94;5082179;28;20496;-81
2024/03/21 08:16:28;;;;;;;1.77;1.30;;;;;;;18.30;26.72;99116.69;5084667;28;20116;-82
2024/03/21 08:18:54;;;;;;;3.28;1.92;;;;;;;18.52;26.29;99121.94;5081549;28;20031;-80
2024/03/21 08:21:21;;;;;;;3.22;1.58;;;;;;;18.02;26.33;99070.63;5090544;28;20423;-80
2024/03/21 08:23:47;;;;;;;1.65;1.55;;;;;;;16.96;25.82;99045.91;5092658;28;20031;-83
2024/03/21 08:26:12;;;;;;;;;;;;;;;18.09;26.54;99117.78;5091798;28;20019;-79
2024/03/21 08:28:37;;;;;;;;;;;;;;;18.48;27.98;99112.19;5091870;28;20345;-80
2024/03/21 08:31:03;;;;;;;;;;;;;;;18.53;24.36;99112.28;5083664;28;19946;-81
2024/03/21 08:33:28;;;;;;;;;;;;;;;18.36;27.25;99108.41;5080538;28;19951;-81
2024/03/21 08:35:53;;;;;;;;;;;;;;;18.37;26.53;99104.38;5092354;28;19923;-78
2024/03/21 08:38:19;;;;;;;;;;;;;;;18.20;26.64;99103.25;5092721;28;19917;-78
2024/03/21 08:40:51;;;;;;;4.87;2.10;;;;;;;18.36;27.86;99085.25;5074707;28;20404;-82
2024/03/21 08:43:17;;;;;;;4.07;1.55;;;;;;;18.63;26.59;99085.00;5070932;28;20017;-81
2024/03/21 08:45:47;;;;;;;2.20;1.60;;;;;;;18.87;27.80;99054.88;5071995;28;20024;-78
2024/03/21 08:48:13;;;;;;;5.40;1.67;;;;;;;19.18;27.05;99090.78;5081132;28;20020;-79
2024/03/21 08:50:39;;;;;;;6.60;1.85;;;;;;;19.08;26.50;99044.53;5073883;28;20024;-79
2024/03/21 08:53:06;;;;;;;2.35;1.90;;;;;;;19.09;24.16;99091.66;5090737;28;20032;-79
2024/03/21 08:55:35;;;;;;;5.20;2.00;;;;;;;18.09;26.73;98999.56;5087381;28;20582;-79
2024/03/21 08:58:01;;;;;;;4.53;1.60;;;;;;;17.50;25.93;99072.81;5082137;28;20100;-78
2024/03/21 09:00:32;;;;;;;3.65;1.90;;;;;;;17.32;26.71;99078.47;5084873;28;20654;-80
2024/03/21 09:03:01;;;;;;;4.18;1.92;;;;;;;16.69;26.06;99004.16;5082589;28;20085;-81
2024/03/21 09:05:27;;;;;;;3.38;1.80;;;;;;;16.67;27.07;99040.91;5089409;28;20058;-80
2024/03/21 09:07:53;;;;;;;4.63;1.88;;;;;;;17.06;27.87;99080.91;5089976;28;20065;-82
2024/03/21 09:10:19;;;;;;;2.53;1.85;;;;;;;17.00;27.89;99071.63;5090073;28;20036;-79
2024/03/21 09:12:44;;;;;;;3.50;1.77;;;;;;;16.90;26.08;99047.78;5088573;28;20563;-79
2024/03/21 09:15:13;;;;;;;3.35;2.10;;;;;;;16.64;27.76;99035.47;5091102;28;20024;-81
2024/03/21 09:17:39;;;;;;;2.60;2.10;;;;;;;16.77;27.11;99055.59;5088836;28;20082;-78
2024/03/21 09:20:05;;;;;;;3.38;2.30;;;;;;;17.08;28.69;99066.50;5091540;28;20026;-79
2024/03/21 09:22:30;;;;;;;2.88;1.85;;;;;;;16.38;27.96;99023.91;5090197;28;20035;-79
2024/03/21 09:24:56;;;;;;;5.72;2.35;;;;;;;16.83;29.62;99059.28;5091310;28;20051;-79
2024/03/21 09:27:21;;;;;;;2.65;1.83;;;;;;;16.62;28.70;99021.22;5091579;28;20020;-80
2024/03/21 09:29:47;;;;;;;3.67;2.33;;;;;;;17.25;31.55;99044.53;5077879;28;20020;-79
2024/03/21 09:32:12;;;;;;;3.83;2.33;;;;;;;17.67;29.31;99034.06;5078728;28;20564;-79
2024/03/21 09:34:37;;;;;;;5.40;3.10;;;;;;;17.95;29.09;99017.09;5090045;28;20028;-80
2024/03/21 09:37:03;;;;;;;5.60;1.90;;;;;;;17.81;27.88;98955.09;5090117;28;20036;-79
2024/03/21 09:39:28;;;;;;;3.20;2.17;;;;;;;18.12;27.49;99007.78;5084894;28;20112;-81
2024/03/21 09:41:55;;;;;;;4.43;2.35;;;;;;;18.48;28.10;99056.22;5082694;28;20085;-79
2024/03/21 09:44:21;;;;;;;5.35;2.40;;;;;;;18.48;27.87;99050.63;5089645;28;20110;-79
2024/03/21 09:46:47;;;;;;;5.47;2.40;;;;;;;18.48;27.28;99048.59;5089838;28;20115;-79
2024/03/21 09:49:13;;;;;;;3.95;2.10;;;;;;;18.48;28.12;99042.22;5089435;28;20057;-79
2024/03/21 09:51:40;;;;;;;3.53;2.17;;;;;;;18.18;27.16;99003.06;5090950;28;20393;-78
2024/03/21 09:54:11;;;;;;;3.25;2.30;;;;;;;18.40;28.56;99027.84;5090762;28;20040;-79
2024/03/21 09:56:36;;;;;;;4.47;2.22;;;;;;;18.29;28.69;98988.50;5089700;28;20478;-79
2024/03/21 09:59:02;;;;;;;2.13;1.80;;;;;;;18.48;28.70;99019.84;5071551;28;20044;-80
2024/03/21 10:01:27;;;;;;;4.20;2.50;;;;;;;18.39;28.26;98989.94;5069097;28;20024;-78
2024/03/21 10:03:55;;;;;;;4.28;2.10;;;;;;;17.85;28.87;98929.72;5089936;28;20541;-79
2024/03/21 10:06:21;;;;;;;2.47;1.88;;;;;;;18.52;27.96;98998.03;5090926;28;20498;-79
2024/03/21 10:08:46;;;;;;;3.43;2.20;;;;;;;18.35;27.13;98966.97;5088900;28;20442;-80
2024/03/21 10:11:12;;;;;;;4.28;2.00;;;;;;;18.95;27.92;98993.66;5089648;28;20028;-80
2024/03/21 10:13:41;;;;;;;4.28;1.50;;;;;;;19.27;26.99;98989.03;5089647;28;20032;-78
2024/03/21 10:16:10;;;;;;;1.63;1.40;;;;;;;19.44;25.30;98964.81;5089523;28;20024;-80
2024/03/21 10:18:36;;;;;;;3.80;1.15;;;;;;;19.64;24.02;98945.22;5063219;28;20501;-79
2024/03/21 10:21:03;;;;;;;3.55;0.90;;;;;;;19.69;22.84;98969.72;5077877;28;20027;-79
2024/03/21 10:23:28;;;;;;;2.88;1.27;;;;;;;19.76;24.13;98957.31;5078228;28;20029;-80
2024/03/21 10:25:54;;;;;;;0.88;0.82;;;;;;;19.68;25.36;98973.03;5084076;28;20032;-82
2024/03/21 10:28:19;;;;;;;2.47;1.27;;;;;;;19.02;24.35;98945.66;5089590;28;20392;-81
2024/03/21 10:30:45;;;;;;;;;;;;;;;19.36;24.33;98981.25;5089410;28;20028;-80
2024/03/21 10:33:17;;;;;;;;;;;;;;;19.41;26.18;98974.94;5082905;28;19912;-78
2024/03/21 10:35:42;;;;;;;;;;;;;;;19.14;24.27;98974.59;5075184;28;19913;-78
2024/03/21 10:38:15;;;;;;;;;;;;;;;18.83;25.68;98972.34;5083635;28;19915;-80
2024/03/21 10:40:55;;;;;;;3.60;1.90;;;;;;;18.31;25.29;98946.81;5069800;28;20402;-79
2024/03/21 10:43:25;;;;;;;2.25;1.90;;;;;;;18.07;26.29;98938.53;5089878;28;20035;-80
2024/03/21 10:45:51;;;;;;;1.50;1.25;;;;;;;17.54;26.41;98893.81;5093351;28;20035;-80
2024/03/21 10:48:32;;;;;;;3.13;1.50;;;;;;;17.59;25.81;98911.94;5093015;28;20069;-79
2024/03/21 10:51:10;;;;;;;2.47;1.40;;;;;;;17.41;25.61;98884.94;5093155;28;20111;-78
2024/03/21 10:53:36;;;;;;;2.92;2.08;;;;;;;17.42;25.55;98892.81;5093987;28;20035;-79
2024/03/21 10:56:06;;;;;;;2.53;1.45;;;;;;;17.81;27.28;98929.16;5093223;28;20495;-79
2024/03/21 10:58:32;;;;;;;1.80;1.17;;;;;;;17.85;23.77;98910.94;5092806;28;20032;-80
2024/03/21 11:00:57;;;;;;;1.60;1.00;;;;;;;17.88;24.32;98876.44;5085122;28;20040;-80
2024/03/21 11:03:22;;;;;;;1.48;0.80;;;;;;;18.20;24.20;98907.50;5084724;28;20035;-81
2024/03/21 11:05:55;;;;;;;1.92;0.90;;;;;;;17.94;24.77;98870.16;5089620;28;20017;-79
2024/03/21 11:08:30;;;;;;;1.30;0.90;;;;;;;17.70;23.53;98895.41;5081960;28;20036;-79
2024/03/21 11:10:57;;;;;;;2.38;1.40;;;;;;;17.49;24.36;98881.28;5084326;28;20583;-81
2024/03/21 11:13:27;;;;;;;1.37;1.03;;;;;;;17.50;23.70;98859.69;5080462;28;20082;-81
2024/03/21 11:15:52;;;;;;;2.28;0.82;;;;;;;17.83;24.27;98876.34;5088603;28;20078;-80
2024/03/21 11:18:18;;;;;;;2.92;1.38;;;;;;;18.26;25.95;98883.19;5111488;28;20036;-81
2024/03/21 11:20:47;;;;;;;1.10;0.90;;;;;;;18.31;23.81;98876.91;5099873;28;20166;-82
2024/03/21 11:23:15;;;;;;;2.25;0.80;;;;;;;18.33;23.46;98840.78;5092307;28;20050;-81
2024/03/21 11:25:41;;;;;;;1.13;1.00;;;;;;;18.19;24.78;98861.19;5080786;28;20077;-79
2024/03/21 11:28:12;;;;;;;1.58;0.90;;;;;;;18.78;25.87;98872.25;5078600;28;20364;-80
2024/03/21 11:30:44;;;;;;;2.35;0.90;;;;;;;19.01;23.86;98871.31;5086244;28;20035;-82
2024/03/21 11:33:10;;;;;;;3.22;1.10;;;;;;;18.96;23.21;98888.81;5081572;28;20075;-80
2024/03/21 11:35:39;;;;;;;1.42;1.10;;;;;;;18.99;24.63;98860.59;5087915;28;20059;-81
2024/03/21 11:38:14;;;;;;;1.52;1.05;;;;;;;18.50;23.07;98881.00;5084299;28;20035;-82
2024/03/21 11:40:40;;;;;;;2.25;0.90;;;;;;;17.84;24.13;98841.56;5072002;28;20040;-82
2024/03/21 11:43:07;;;;;;;1.15;0.93;;;;;;;18.08;24.97;98869.41;5079390;28;20100;-80
2024/03/21 11:45:35;;;;;;;2.07;0.90;;;;;;;17.65;24.58;98837.41;5073077;28;20771;-81
2024/03/21 11:48:13;;;;;;;2.13;1.05;;;;;;;18.11;25.28;98860.03;5085259;28;20024;-81